Aktobe Airport


Codes: UATT/AKX
Name: Aktobe Airport
City: Aktyuinsk
Country: Kazakhstan
Elevation: 738 ft.
Wikipedia:

Photos at Aktobe Airport


   Photos courtesy of SpottingLog. You can add your own sightings and photos by signing up for a free trial today.



No photos found.

Weather at Aktobe Airport


Time (UTC)DescriptionTempratureWindCloud coverageVisibilityPressureHumidity
21-Feb-2024 03:00Clear Sky-23°C4 mph, E0%10000m1030hPa70%
21-Feb-2024 06:00Scattered Clouds-21°C4 mph, E33%10000m1032hPa74%
21-Feb-2024 09:00Few Clouds-18°C4 mph, E23%10000m1033hPa74%
21-Feb-2024 12:00Scattered Clouds-15°C4 mph, NE25%10000m1035hPa84%
21-Feb-2024 15:00Few Clouds-24°C4 mph, NE16%10000m1036hPa96%
21-Feb-2024 18:00Few Clouds-27°C2 mph, E16%10000m1037hPa99%
21-Feb-2024 21:00Few Clouds-28°C2 mph, NE17%10000m1038hPa100%
22-Feb-2024 00:00Scattered Clouds-29°C2 mph, NE27%10000m1038hPa100%
22-Feb-2024 03:00Scattered Clouds-29°C2 mph, NE39%10000m1038hPa100%
22-Feb-2024 06:00Scattered Clouds-22°C4 mph, NE26%10000m1038hPa90%
22-Feb-2024 09:00Clear Sky-17°C4 mph, NE5%10000m1037hPa76%
22-Feb-2024 12:00Clear Sky-16°C4 mph, NE3%10000m1037hPa83%
22-Feb-2024 15:00Clear Sky-24°C2 mph, NE3%10000m1039hPa94%
22-Feb-2024 18:00Clear Sky-28°C2 mph, E4%10000m1040hPa97%
22-Feb-2024 21:00Clear Sky-30°C2 mph, E5%10000m1041hPa97%
23-Feb-2024 00:00Clear Sky-31°C2 mph, E5%10000m1041hPa97%
23-Feb-2024 03:00Clear Sky-31°C2 mph, E5%10000m1042hPa96%
23-Feb-2024 06:00Clear Sky-22°C2 mph, E5%10000m1042hPa75%
23-Feb-2024 09:00Clear Sky-16°C2 mph, E0%10000m1041hPa59%
23-Feb-2024 12:00Clear Sky-16°C2 mph, NE2%10000m1042hPa77%
23-Feb-2024 15:00Clear Sky-23°C2 mph, NE6%10000m1043hPa84%
23-Feb-2024 18:00Clear Sky-26°C2 mph, E9%10000m1045hPa91%
23-Feb-2024 21:00Few Clouds-28°C2 mph, E20%10000m1046hPa91%
24-Feb-2024 00:00Few Clouds-28°C2 mph, E14%10000m1047hPa88%
24-Feb-2024 03:00Clear Sky-28°C2 mph, E2%10000m1048hPa84%
24-Feb-2024 06:00Clear Sky-19°C2 mph, E1%10000m1048hPa60%
24-Feb-2024 09:00Clear Sky-14°C2 mph, E0%10000m1047hPa54%
24-Feb-2024 12:00Clear Sky-13°C0 mph, NE0%10000m1048hPa75%
24-Feb-2024 15:00Clear Sky-21°C2 mph, E0%10000m1049hPa82%
24-Feb-2024 18:00Clear Sky-24°C2 mph, SE0%10000m1050hPa88%
24-Feb-2024 21:00Clear Sky-25°C2 mph, SE9%10000m1051hPa90%
25-Feb-2024 00:00Few Clouds-26°C0 mph, SE12%10000m1052hPa90%
25-Feb-2024 03:00Clear Sky-27°C0 mph, E10%10000m1052hPa91%
25-Feb-2024 06:00Clear Sky-17°C2 mph, N6%10000m1051hPa77%
25-Feb-2024 09:00Clear Sky-11°C2 mph, N0%10000m1050hPa73%
25-Feb-2024 12:00Clear Sky-10°C2 mph, NW0%10000m1049hPa84%
25-Feb-2024 15:00Clear Sky-18°C2 mph, NW5%10000m1051hPa95%
25-Feb-2024 18:00Clear Sky-21°C0 mph, N7%10000m1051hPa100%
25-Feb-2024 21:00Scattered Clouds-23°C2 mph, N26%10000m1051hPa99%
26-Feb-2024 00:00Scattered Clouds-24°C0 mph, NE29%10000m1051hPa99%